createdAt,value
2018-03-30T00:02:08.426Z,89.43
2018-03-30T00:04:35.982Z,89.19
2018-03-30T00:07:09.057Z,89.04
2018-03-30T00:09:48.245Z,89.41
2018-03-30T00:12:17.426Z,89.45
2018-03-30T00:14:44.952Z,89.43
2018-03-30T00:17:12.484Z,89.04
2018-03-30T00:19:40.011Z,88.46
2018-03-30T00:22:07.542Z,88.02
2018-03-30T00:24:35.111Z,88.34
2018-03-30T00:27:03.397Z,88.06
2018-03-30T00:29:30.914Z,88.16
2018-03-30T00:31:58.446Z,87.91
2018-03-30T00:34:25.981Z,87.72
2018-03-30T00:36:54.079Z,87.78
2018-03-30T00:39:22.591Z,88.05
2018-03-30T00:41:50.121Z,88.12
2018-03-30T00:44:17.789Z,88.03
2018-03-30T00:46:45.311Z,88.09
2018-03-30T00:49:12.869Z,87.78
2018-03-30T00:51:40.834Z,88.03
2018-03-30T00:54:08.356Z,88.05
2018-03-30T00:56:35.886Z,87.73
2018-03-30T00:59:03.417Z,87.85
2018-03-30T01:01:31.766Z,87.81
2018-03-30T01:04:00.141Z,87.98
2018-03-30T01:06:27.686Z,88.05
2018-03-30T01:08:55.223Z,88.00
2018-03-30T01:11:22.750Z,88.97
2018-03-30T01:13:50.274Z,89.25
2018-03-30T01:16:18.548Z,88.96
2018-03-30T01:18:47.308Z,89.49
2018-03-30T01:21:14.838Z,89.29
2018-03-30T01:23:42.860Z,88.62
2018-03-30T01:26:10.402Z,88.76
2018-03-30T01:28:38.698Z,89.73
2018-03-30T01:31:06.231Z,89.69
2018-03-30T01:33:33.758Z,89.95
2018-03-30T01:36:04.933Z,90.07
2018-03-30T01:38:32.462Z,90.04
2018-03-30T01:40:59.982Z,89.26
2018-03-30T01:43:27.639Z,89.27
2018-03-30T01:45:55.160Z,89.25
2018-03-30T01:48:22.686Z,90.32
2018-03-30T01:50:50.223Z,90.54
2018-03-30T01:53:17.753Z,90.38
2018-03-30T01:55:45.283Z,90.35
2018-03-30T01:58:12.811Z,90.24
2018-03-30T02:00:40.345Z,90.66
2018-03-30T02:03:07.863Z,91.05
2018-03-30T02:05:35.389Z,91.02
2018-03-30T02:08:02.908Z,91.06
2018-03-30T02:10:30.438Z,90.72
2018-03-30T02:12:57.965Z,90.05
2018-03-30T02:15:25.485Z,89.92
2018-03-30T02:17:53.010Z,90.83
2018-03-30T02:20:20.537Z,91.32
2018-03-30T02:22:48.096Z,91.25
2018-03-30T02:25:15.698Z,90.78
2018-03-30T02:27:43.443Z,90.59
2018-03-30T02:30:11.225Z,91.09
2018-03-30T02:32:38.920Z,90.61
2018-03-30T02:35:06.474Z,90.01
2018-03-30T02:37:34.067Z,89.76
2018-03-30T02:40:01.702Z,89.89
2018-03-30T02:42:29.227Z,89.96
2018-03-30T02:44:56.775Z,89.83
2018-03-30T02:47:24.351Z,90.09
2018-03-30T02:49:51.922Z,90.05
2018-03-30T02:52:19.527Z,90.07
2018-03-30T02:54:48.053Z,90.13
2018-03-30T02:57:15.682Z,90.23
2018-03-30T02:59:43.339Z,90.10
2018-03-30T03:02:11.097Z,90.18
2018-03-30T03:04:39.352Z,90.36
2018-03-30T03:07:07.151Z,90.25
2018-03-30T03:09:34.771Z,89.90
2018-03-30T03:12:03.166Z,90.03
2018-03-30T03:14:31.129Z,90.27
2018-03-30T03:16:58.834Z,90.74
2018-03-30T03:19:27.029Z,90.52
2018-03-30T03:21:54.661Z,90.70
2018-03-30T03:24:23.174Z,90.50
2018-03-30T03:26:52.269Z,90.17
2018-03-30T03:29:20.790Z,90.02
2018-03-30T03:31:48.364Z,90.35
2018-03-30T03:34:15.929Z,90.21
2018-03-30T03:36:44.490Z,90.21
2018-03-30T03:39:12.080Z,90.07
2018-03-30T03:41:39.748Z,90.49
2018-03-30T03:44:08.417Z,90.91
2018-03-30T03:46:36.056Z,90.68
2018-03-30T03:49:04.508Z,90.37
2018-03-30T03:51:32.080Z,90.24
2018-03-30T03:53:59.737Z,90.50
2018-03-30T03:56:27.976Z,90.36
2018-03-30T03:58:55.626Z,90.19
2018-03-30T04:01:23.316Z,89.87
2018-03-30T04:03:51.028Z,90.16
2018-03-30T04:06:18.713Z,89.60
2018-03-30T04:08:47.345Z,89.06
2018-03-30T04:11:15.026Z,88.66
2018-03-30T04:13:42.657Z,88.23
2018-03-30T04:16:10.221Z,88.07
2018-03-30T04:18:37.834Z,87.73
2018-03-30T04:21:05.415Z,87.19
2018-03-30T04:23:32.958Z,86.96
2018-03-30T04:26:01.425Z,86.77
2018-03-30T04:28:28.952Z,86.40
2018-03-30T04:30:57.214Z,86.38
2018-03-30T04:33:25.798Z,86.60
2018-03-30T04:35:53.793Z,86.48
2018-03-30T04:38:21.329Z,85.90
2018-03-30T04:40:48.858Z,85.74
2018-03-30T04:43:16.378Z,85.50
2018-03-30T04:45:43.901Z,85.19
2018-03-30T04:48:11.438Z,85.37
2018-03-30T04:50:38.970Z,85.29
2018-03-30T04:53:06.498Z,85.28
2018-03-30T04:55:34.025Z,84.92
2018-03-30T04:58:01.552Z,84.76
2018-03-30T05:00:29.085Z,84.96
2018-03-30T05:02:56.613Z,85.25
2018-03-30T05:05:25.023Z,85.05
2018-03-30T05:07:52.617Z,84.87
2018-03-30T05:10:20.103Z,85.10
2018-03-30T05:12:47.624Z,85.10
2018-03-30T05:15:15.160Z,85.02
2018-03-30T05:17:42.682Z,85.56
2018-03-30T05:20:10.206Z,84.89
2018-03-30T05:22:37.725Z,85.18
2018-03-30T05:25:05.250Z,85.55
2018-03-30T05:27:32.885Z,85.55
2018-03-30T05:30:00.428Z,85.06
2018-03-30T06:54:24.926Z,61.70
2018-03-30T06:56:52.462Z,61.94
2018-03-30T06:59:19.999Z,61.53
2018-03-30T07:01:47.544Z,61.02
2018-03-30T07:04:15.074Z,60.01
2018-03-30T07:06:42.619Z,59.87
2018-03-30T07:09:10.179Z,60.00
2018-03-30T07:11:38.659Z,62.32
2018-03-30T07:14:06.196Z,61.52
2018-03-30T07:16:33.768Z,62.79
2018-03-30T07:19:01.318Z,63.16
2018-03-30T07:21:28.840Z,62.16
2018-03-30T07:23:56.365Z,62.58
2018-03-30T07:26:23.893Z,62.03
2018-03-30T07:28:52.256Z,61.90
2018-03-30T07:31:19.793Z,62.86
2018-03-30T07:33:47.331Z,62.16
2018-03-30T07:36:15.811Z,61.40
2018-03-30T07:38:43.333Z,61.80
2018-03-30T07:41:10.857Z,58.75
2018-03-30T07:43:39.128Z,59.21
2018-03-30T07:46:06.658Z,57.93
2018-03-30T07:48:34.185Z,61.68
2018-03-30T07:51:01.710Z,63.61
2018-03-30T07:53:29.236Z,63.29
2018-03-30T07:55:56.766Z,62.16
2018-03-30T07:58:24.296Z,61.47
2018-03-30T08:00:52.430Z,61.31
2018-03-30T08:03:20.193Z,60.55
2018-03-30T08:05:48.681Z,59.10
2018-03-30T08:08:16.850Z,58.75
2018-03-30T08:10:44.370Z,58.02
2018-03-30T08:13:12.518Z,57.81
2018-03-30T08:15:40.739Z,56.04
2018-03-30T08:18:08.335Z,54.94
2018-03-30T08:20:35.840Z,55.84
2018-03-30T08:23:04.294Z,55.92
2018-03-30T08:25:31.841Z,54.59
2018-03-30T08:27:59.373Z,56.07
2018-03-30T08:30:26.912Z,55.56
2018-03-30T08:32:55.016Z,55.28
2018-03-30T08:35:22.535Z,54.71
2018-03-30T08:37:50.062Z,52.83
2018-03-30T08:40:18.201Z,52.89
2018-03-30T08:42:45.714Z,54.56
2018-03-30T08:45:13.264Z,54.50
2018-03-30T08:47:41.136Z,55.94
2018-03-30T08:50:08.657Z,56.64
2018-03-30T08:52:39.045Z,58.77
2018-03-30T08:55:07.139Z,58.28
2018-03-30T08:57:34.670Z,56.80
2018-03-30T09:00:02.587Z,59.46
2018-03-30T09:02:30.133Z,57.52
2018-03-30T09:04:57.729Z,57.45
2018-03-30T09:07:25.275Z,58.91
2018-03-30T09:09:52.812Z,58.41
2018-03-30T09:12:20.436Z,60.05
2018-03-30T09:14:47.958Z,58.51
2018-03-30T09:17:15.574Z,60.87
2018-03-30T09:19:43.092Z,61.46
2018-03-30T09:22:10.686Z,61.75
2018-03-30T09:24:38.208Z,60.52
2018-03-30T09:27:05.856Z,60.97
2018-03-30T09:29:33.357Z,61.44
2018-03-30T09:32:00.916Z,61.45
2018-03-30T09:34:28.468Z,62.76
2018-03-30T09:36:56.114Z,61.79
2018-03-30T09:39:23.645Z,62.72
2018-03-30T09:41:51.161Z,63.03
2018-03-30T09:44:18.684Z,63.06
2018-03-30T09:46:46.209Z,61.55
2018-03-30T09:49:13.720Z,62.48
2018-03-30T09:51:41.286Z,63.46
2018-03-30T09:54:08.825Z,62.85
2018-03-30T09:56:36.344Z,62.87
2018-03-30T09:59:03.880Z,60.77
2018-03-30T10:01:31.406Z,60.52
2018-03-30T10:03:58.945Z,57.88
2018-03-30T10:06:26.492Z,55.58
2018-03-30T10:08:54.034Z,53.95
2018-03-30T10:11:21.676Z,54.77
2018-03-30T10:13:49.205Z,54.04
2018-03-30T10:16:16.808Z,51.55
2018-03-30T10:18:44.480Z,50.16
2018-03-30T10:21:12.126Z,49.17
2018-03-30T10:23:39.654Z,45.50
2018-03-30T10:26:07.253Z,43.19
2018-03-30T10:28:34.774Z,41.78
2018-03-30T10:31:02.293Z,43.82
2018-03-30T10:33:29.820Z,43.38
2018-03-30T10:35:57.352Z,42.36
2018-03-30T10:38:24.871Z,39.88
2018-03-30T10:40:52.396Z,39.93
2018-03-30T10:43:19.965Z,42.99
2018-03-30T10:45:47.489Z,42.06
2018-03-30T10:48:15.075Z,41.27
2018-03-30T10:50:43.478Z,41.97
2018-03-30T10:53:11.019Z,41.49
2018-03-30T10:55:38.582Z,42.14
2018-03-30T10:58:06.135Z,45.65
2018-03-30T11:00:33.680Z,46.27
2018-03-30T11:03:01.222Z,47.89
2018-03-30T11:05:28.816Z,48.44
2018-03-30T11:07:56.379Z,50.23
2018-03-30T11:10:23.993Z,50.41
2018-03-30T11:12:51.544Z,50.97
2018-03-30T11:15:19.070Z,52.84
2018-03-30T11:17:46.926Z,52.67
2018-03-30T11:20:14.484Z,54.09
2018-03-30T11:22:42.067Z,53.70
2018-03-30T11:25:09.568Z,52.27
2018-03-30T11:27:37.104Z,52.80
2018-03-30T11:30:04.633Z,54.14
2018-03-30T11:32:32.154Z,55.75
2018-03-30T11:34:59.683Z,53.71
2018-03-30T11:37:27.225Z,53.96
2018-03-30T11:39:54.759Z,55.14
2018-03-30T11:42:22.289Z,54.14
2018-03-30T11:44:49.824Z,53.29
2018-03-30T11:47:17.407Z,53.31
2018-03-30T11:49:44.934Z,55.15
2018-03-30T11:52:12.497Z,53.24
2018-03-30T11:54:40.068Z,52.97
2018-03-30T11:57:07.615Z,53.65
2018-03-30T11:59:35.143Z,53.87
2018-03-30T12:02:02.660Z,54.65
2018-03-30T12:04:30.265Z,54.64
2018-03-30T12:06:57.791Z,54.08
2018-03-30T12:09:25.314Z,53.22
2018-03-30T12:11:52.834Z,53.88
2018-03-30T12:14:20.362Z,51.73
2018-03-30T12:16:47.954Z,52.14
2018-03-30T12:19:15.516Z,52.99
2018-03-30T12:21:43.081Z,52.52
2018-03-30T12:24:10.605Z,51.23
2018-03-30T12:26:38.132Z,50.39
2018-03-30T12:29:05.684Z,51.39
2018-03-30T12:31:33.316Z,51.66
2018-03-30T12:34:00.845Z,51.66
2018-03-30T12:36:28.385Z,52.74
2018-03-30T12:38:55.926Z,52.56
2018-03-30T12:41:23.454Z,50.78
2018-03-30T12:43:50.982Z,50.41
2018-03-30T12:46:18.626Z,50.84
2018-03-30T12:48:46.139Z,50.60
2018-03-30T12:51:13.663Z,50.73
2018-03-30T12:53:41.204Z,51.13
2018-03-30T12:56:08.741Z,50.59
2018-03-30T12:58:36.270Z,50.57
2018-03-30T13:01:03.785Z,51.76
2018-03-30T13:03:31.333Z,52.08
2018-03-30T13:05:58.898Z,51.76
2018-03-30T13:08:26.509Z,50.45
2018-03-30T13:10:54.026Z,50.36
2018-03-30T13:13:21.560Z,50.95
2018-03-30T13:15:49.091Z,48.27
2018-03-30T13:18:16.749Z,47.98
2018-03-30T13:20:44.282Z,48.77
2018-03-30T13:23:11.869Z,49.69
2018-03-30T13:25:39.398Z,48.57
2018-03-30T13:28:06.930Z,48.50
2018-03-30T13:30:34.457Z,48.20
2018-03-30T13:33:01.986Z,48.80
2018-03-30T13:35:29.521Z,48.46
2018-03-30T13:37:57.132Z,49.68
2018-03-30T13:40:24.654Z,50.75
2018-03-30T13:42:52.174Z,49.91
2018-03-30T13:45:19.712Z,49.22
2018-03-30T13:47:47.250Z,48.32
2018-03-30T13:50:14.782Z,48.66
2018-03-30T13:52:44.127Z,48.31
2018-03-30T13:55:11.650Z,49.15
2018-03-30T13:57:40.023Z,48.62
2018-03-30T14:03:04.944Z,46.86
2018-03-30T14:08:33.573Z,47.85
2018-03-30T14:11:02.859Z,48.96
2018-03-30T14:13:30.378Z,49.30
2018-03-30T14:16:08.259Z,49.57
2018-03-30T14:18:36.737Z,49.87
2018-03-30T14:21:05.078Z,48.57
2018-03-30T14:23:33.680Z,49.65
2018-03-30T14:26:15.089Z,49.85
2018-03-30T14:28:44.482Z,50.06
2018-03-30T14:31:17.625Z,49.68
2018-03-30T14:33:46.653Z,49.65
2018-03-30T14:36:32.917Z,50.10
2018-03-30T14:39:12.038Z,50.13
2018-03-30T14:41:39.605Z,49.75
2018-03-30T14:44:11.810Z,49.78
2018-03-30T14:46:50.102Z,49.37
2018-03-30T14:49:18.517Z,49.63
2018-03-30T14:54:50.234Z,49.21
2018-03-30T14:57:20.549Z,48.98
2018-03-30T14:59:51.147Z,48.83
2018-03-30T15:02:30.253Z,49.04
2018-03-30T15:04:58.585Z,49.49
2018-03-30T15:07:29.675Z,49.23
2018-03-30T15:10:05.865Z,49.84
2018-03-30T15:15:48.590Z,49.35
2018-03-30T15:18:18.931Z,49.41
2018-03-30T15:23:48.521Z,49.99
2018-03-30T15:29:18.565Z,49.88
2018-03-30T15:32:07.655Z,49.76
2018-03-30T15:34:50.633Z,49.73
2018-03-30T15:37:18.245Z,50.17
2018-03-30T15:40:06.249Z,50.46
2018-03-30T15:42:48.662Z,50.04
2018-03-30T15:45:17.071Z,50.38
2018-03-30T15:47:44.605Z,50.71
2018-03-30T15:50:12.126Z,50.22
2018-03-30T15:52:39.663Z,50.76
2018-03-30T15:55:07.203Z,50.72
2018-03-30T15:57:34.802Z,51.38
2018-03-30T16:00:02.347Z,51.37
2018-03-30T16:02:29.989Z,51.66
2018-03-30T16:04:57.522Z,51.38
2018-03-30T16:07:25.040Z,51.31
2018-03-30T16:09:53.588Z,51.57
2018-03-30T16:12:21.970Z,51.20
2018-03-30T16:14:49.503Z,51.44
2018-03-30T16:17:17.024Z,51.59
2018-03-30T16:19:44.022Z,51.63
2018-03-30T16:22:11.023Z,51.93
2018-03-30T16:24:38.127Z,51.85
2018-03-30T16:27:05.181Z,52.04
2018-03-30T16:29:32.188Z,52.69
2018-03-30T16:31:59.175Z,52.64
2018-03-30T16:34:26.227Z,53.00
2018-03-30T16:36:53.246Z,52.95
2018-03-30T16:39:20.317Z,53.89
2018-03-30T16:41:47.300Z,53.76
2018-03-30T16:44:14.291Z,54.06
2018-03-30T16:46:41.294Z,54.02
2018-03-30T16:49:08.420Z,54.46
2018-03-30T16:51:35.409Z,54.26
2018-03-30T16:54:02.502Z,54.12
2018-03-30T16:56:29.486Z,54.48
2018-03-30T16:58:56.597Z,54.46
2018-03-30T17:01:23.574Z,54.58
2018-03-30T17:03:50.592Z,53.92
2018-03-30T17:06:17.577Z,54.04
2018-03-30T17:08:44.674Z,53.52
2018-03-30T17:11:11.669Z,54.06
2018-03-30T17:13:38.665Z,53.54
2018-03-30T17:16:05.688Z,52.68
2018-03-30T17:18:32.713Z,52.71
2018-03-30T17:20:59.697Z,52.24
2018-03-30T17:23:26.705Z,52.04
2018-03-30T17:25:53.680Z,52.18
2018-03-30T17:28:20.699Z,52.17
2018-03-30T17:30:47.717Z,52.11
2018-03-30T17:33:14.725Z,52.26
2018-03-30T17:35:41.710Z,52.28
2018-03-30T17:38:08.725Z,52.00
2018-03-30T17:40:35.722Z,52.23
2018-03-30T17:43:02.726Z,52.35
2018-03-30T17:45:30.690Z,52.40
2018-03-30T17:47:57.693Z,52.49
2018-03-30T17:50:24.713Z,52.92
2018-03-30T17:52:51.703Z,53.39
2018-03-30T17:55:18.808Z,54.23
2018-03-30T17:57:45.790Z,54.19
2018-03-30T18:00:12.835Z,54.97
2018-03-30T18:02:40.445Z,54.61
2018-03-30T18:05:07.517Z,54.95
2018-03-30T18:07:34.506Z,55.00
2018-03-30T18:10:01.612Z,55.45
2018-03-30T18:12:28.657Z,55.20
2018-03-30T18:14:55.653Z,55.42
2018-03-30T18:17:22.756Z,55.56
2018-03-30T18:19:49.734Z,54.96
2018-03-30T18:22:16.854Z,54.89
2018-03-30T18:24:43.935Z,55.08
2018-03-30T18:27:10.945Z,54.48
2018-03-30T18:29:37.923Z,54.33
2018-03-30T18:32:04.909Z,54.43
2018-03-30T18:34:31.987Z,54.82
2018-03-30T18:36:59.038Z,54.78
2018-03-30T18:39:26.050Z,55.18
2018-03-30T18:41:53.052Z,55.75
2018-03-30T18:44:20.045Z,56.25
2018-03-30T18:46:47.040Z,56.58
2018-03-30T18:49:14.036Z,56.42
2018-03-30T18:51:41.037Z,57.00
2018-03-30T18:54:08.060Z,57.31
2018-03-30T18:56:35.037Z,57.43
2018-03-30T18:59:02.021Z,57.56
2018-03-30T19:01:29.021Z,57.78
2018-03-30T19:03:56.014Z,58.36
2018-03-30T19:06:23.014Z,58.33
2018-03-30T19:08:50.037Z,58.99
2018-03-30T19:11:17.197Z,59.24
2018-03-30T19:13:44.192Z,58.97
2018-03-30T19:16:11.205Z,59.15
2018-03-30T19:18:38.202Z,59.58
2018-03-30T19:21:05.211Z,59.40
2018-03-30T19:23:32.193Z,59.89
2018-03-30T19:25:59.193Z,59.91
2018-03-30T19:28:26.218Z,60.04
2018-03-30T19:30:53.268Z,60.19
2018-03-30T19:33:20.252Z,60.39
2018-03-30T19:35:47.234Z,60.45
2018-03-30T19:38:14.240Z,60.69
2018-03-30T19:40:41.237Z,60.76
2018-03-30T19:43:08.222Z,60.95
2018-03-30T19:45:35.250Z,61.34
2018-03-30T19:48:02.227Z,61.31
2018-03-30T19:50:29.208Z,61.56
2018-03-30T19:52:56.209Z,61.67
2018-03-30T19:55:23.197Z,61.76
2018-03-30T19:57:50.205Z,61.65
2018-03-30T20:00:17.224Z,61.77
2018-03-30T20:02:44.203Z,61.58
2018-03-30T20:05:11.218Z,61.44
2018-03-30T20:07:39.054Z,61.99
2018-03-30T20:10:06.121Z,61.53
2018-03-30T20:12:33.256Z,61.66
2018-03-30T20:15:00.335Z,61.81
2018-03-30T20:17:27.328Z,61.85
2018-03-30T20:19:54.334Z,61.95
2018-03-30T20:22:21.349Z,62.08
2018-03-30T20:24:48.345Z,62.00
2018-03-30T20:27:15.339Z,62.01
2018-03-30T20:29:42.343Z,61.97
2018-03-30T20:32:09.359Z,62.11
2018-03-30T20:34:36.348Z,62.06
2018-03-30T20:37:03.388Z,62.20
2018-03-30T20:39:30.539Z,62.17
2018-03-30T20:41:57.552Z,62.23
2018-03-30T20:44:24.533Z,62.41
2018-03-30T20:46:51.517Z,62.33
2018-03-30T20:49:18.598Z,62.27
2018-03-30T20:51:45.610Z,62.36
2018-03-30T20:54:12.615Z,62.23
2018-03-30T20:56:39.635Z,62.07
2018-03-30T20:59:06.856Z,62.54
2018-03-30T21:01:33.865Z,62.40
2018-03-30T21:04:00.852Z,62.46
2018-03-30T21:06:27.866Z,62.26
2018-03-30T21:08:54.980Z,62.34
2018-03-30T21:11:21.980Z,62.19
2018-03-30T21:13:49.137Z,62.22
2018-03-30T21:16:16.241Z,62.49
2018-03-30T21:18:43.273Z,62.47
2018-03-30T21:21:10.393Z,62.24
2018-03-30T21:23:37.542Z,62.50
2018-03-30T21:26:04.553Z,62.46
2018-03-30T21:28:31.556Z,62.47
2018-03-30T21:30:58.578Z,62.67
2018-03-30T21:33:25.640Z,62.67
2018-03-30T21:35:52.683Z,62.90
2018-03-30T21:38:19.696Z,63.00
2018-03-30T21:40:46.733Z,62.84
2018-03-30T21:43:13.727Z,63.21
2018-03-30T21:45:40.806Z,63.22
2018-03-30T21:48:07.858Z,63.32
2018-03-30T21:50:34.866Z,63.94
2018-03-30T21:53:01.857Z,63.71
2018-03-30T21:55:28.856Z,63.94
2018-03-30T21:57:55.854Z,64.02
2018-03-30T22:00:22.848Z,64.29
2018-03-30T22:02:49.844Z,64.40
2018-03-30T22:05:16.834Z,64.71
2018-03-30T22:07:43.850Z,64.91
2018-03-30T22:10:10.837Z,64.96
2018-03-30T22:12:37.845Z,65.37
2018-03-30T22:15:04.829Z,65.58
2018-03-30T22:17:31.832Z,65.66
2018-03-30T22:19:58.843Z,65.90
2018-03-30T22:22:26.106Z,66.18
2018-03-30T22:24:53.162Z,66.48
2018-03-30T22:27:20.297Z,66.72
2018-03-30T22:29:47.360Z,66.54
2018-03-30T22:32:14.406Z,66.98
2018-03-30T22:34:41.438Z,67.02
2018-03-30T22:37:08.501Z,67.31
2018-03-30T22:39:35.486Z,67.41
2018-03-30T22:42:02.460Z,67.64
2018-03-30T22:44:29.487Z,67.71
2018-03-30T22:46:56.490Z,67.83
2018-03-30T22:49:23.468Z,68.28
2018-03-30T22:51:50.493Z,68.01
2018-03-30T22:54:17.494Z,68.13
2018-03-30T22:56:44.576Z,68.38
2018-03-30T22:59:11.550Z,68.58
2018-03-30T23:01:38.645Z,68.83
2018-03-30T23:04:05.632Z,68.98
2018-03-30T23:06:32.605Z,69.00
2018-03-30T23:08:59.612Z,69.22
2018-03-30T23:11:26.627Z,69.45
2018-03-30T23:13:53.628Z,69.67
2018-03-30T23:16:20.621Z,69.56
2018-03-30T23:18:47.626Z,69.89
2018-03-30T23:21:14.614Z,70.15
2018-03-30T23:23:41.696Z,70.26
2018-03-30T23:26:08.846Z,70.33
2018-03-30T23:28:35.897Z,70.50
2018-03-30T23:31:02.894Z,70.61
2018-03-30T23:33:29.888Z,70.82
2018-03-30T23:35:57.091Z,70.98
2018-03-30T23:38:24.152Z,71.22
2018-03-30T23:40:51.174Z,71.19
2018-03-30T23:43:18.149Z,71.35
2018-03-30T23:45:45.162Z,71.27
2018-03-30T23:48:12.284Z,71.41
2018-03-30T23:50:39.262Z,71.43
2018-03-30T23:53:06.273Z,71.59
2018-03-30T23:55:33.322Z,71.77
2018-03-30T23:58:00.370Z,71.79
